Time;durP1;ratioP1;P1;durP2;ratioP2;P2;SDS_P1;SDS_P2;PMS_P1;PMS_P2;Temp;Humidity;BMP_temperature;BMP_pressure;BME280_temperature;BME280_humidity;BME280_pressure;Samples;Min_cycle;Max_cycle;Signal;HPM_P1;HPM_P2
2023/07/09 00:01:27;;;;;;;36.50;7.72;;;;;;;;;;4974750;28;20077;-68
2023/07/09 00:03:53;;;;;;;20.48;4.10;;;;;;;;;;4974888;28;20042;-69
2023/07/09 00:06:19;;;;;;;23.58;4.07;;;;;;;;;;4975204;28;20031;-69
2023/07/09 00:08:47;;;;;;;19.75;4.45;;;;;;;;;;4973664;28;20535;-69
2023/07/09 00:11:13;;;;;;;18.00;3.97;;;;;;;;;;4974056;28;20045;-69
2023/07/09 00:13:38;;;;;;;22.88;3.97;;;;;;;;;;4974266;28;20129;-68
2023/07/09 00:16:19;;;;;;;17.42;4.03;;;;;;;;;;4974966;28;20042;-68
2023/07/09 00:18:48;;;;;;;19.58;3.78;;;;;;;;;;4973255;28;20057;-69
2023/07/09 00:21:14;;;;;;;22.52;4.03;;;;;;;;;;4975047;28;20037;-69
2023/07/09 00:23:39;;;;;;;16.67;3.88;;;;;;;;;;4974497;28;20117;-69
2023/07/09 00:26:13;;;;;;;24.17;4.20;;;;;;;;;;4974824;28;20047;-68
2023/07/09 00:28:38;;;;;;;;;;;;;;;;;;4972273;28;20042;-69
2023/07/09 00:31:04;;;;;;;15.00;3.20;;;;;;;;;;4974879;28;19922;-68
2023/07/09 00:33:31;;;;;;;21.25;3.55;;;;;;;;;;4974344;28;20054;-68
2023/07/09 00:35:57;;;;;;;18.08;3.83;;;;;;;;;;4970537;28;20125;-69
2023/07/09 00:38:23;;;;;;;19.88;3.83;;;;;;;;;;4972571;28;20038;-69
2023/07/09 00:41:03;;;;;;;15.77;3.55;;;;;;;;;;4973923;28;20038;-68
2023/07/09 00:43:36;;;;;;;13.48;3.40;;;;;;;;;;4961521;28;20390;-68
2023/07/09 00:46:30;;;;;;;21.50;3.90;;;;;;;;;;4973216;28;20121;-69
2023/07/09 00:49:09;;;;;;;24.75;4.30;;;;;;;;;;4947526;28;20555;-69
2023/07/09 00:51:41;;;;;;;14.35;3.72;;;;;;;;;;4968168;28;20066;-68
2023/07/09 00:54:18;;;;;;;15.73;3.92;;;;;;;;;;4973095;28;20121;-69
2023/07/09 00:56:46;;;;;;;16.73;3.92;;;;;;;;;;4974645;28;20043;-69
2023/07/09 00:59:15;;;;;;;19.45;3.97;;;;;;;;;;4973778;28;20071;-68
2023/07/09 01:01:40;;;;;;;11.50;3.50;;;;;;;;;;4972967;28;20042;-69
2023/07/09 01:04:07;;;;;;;18.70;4.97;;;;;;;;;;4973123;28;20050;-69
2023/07/09 01:06:36;;;;;;;12.73;4.32;;;;;;;;;;4973517;28;20134;-69
2023/07/09 01:09:03;;;;;;;15.80;3.58;;;;;;;;;;4972799;28;20562;-69
2023/07/09 01:11:29;;;;;;;20.35;3.70;;;;;;;;;;4974203;28;20035;-69
2023/07/09 01:13:57;;;;;;;15.63;4.30;;;;;;;;;;4973801;28;20408;-68
2023/07/09 01:16:24;;;;;;;15.15;4.38;;;;;;;;;;4974157;28;20058;-69
2023/07/09 01:18:50;;;;;;;13.90;3.65;;;;;;;;;;4972695;28;20043;-68
2023/07/09 01:21:16;;;;;;;19.75;4.07;;;;;;;;;;4974164;28;20053;-69
2023/07/09 01:23:46;;;;;;;16.17;4.05;;;;;;;;;;4974110;28;20379;-68
2023/07/09 01:26:14;;;;;;;17.75;4.30;;;;;;;;;;4973828;28;20042;-69
2023/07/09 01:28:45;;;;;;;14.48;3.33;;;;;;;;;;4972636;28;20412;-68
2023/07/09 01:31:12;;;;;;;15.40;3.97;;;;;;;;;;4974177;28;20046;-68
2023/07/09 01:33:41;;;;;;;24.35;4.53;;;;;;;;;;4972519;28;20121;-68
2023/07/09 01:36:08;;;;;;;20.30;4.28;;;;;;;;;;4974290;28;20032;-69
2023/07/09 01:38:34;;;;;;;10.27;3.80;;;;;;;;;;4973752;28;20038;-68
2023/07/09 01:41:00;;;;;;;15.68;4.25;;;;;;;;;;4973282;28;20030;-69
2023/07/09 01:43:26;;;;;;;15.10;4.45;;;;;;;;;;4973766;28;20050;-69
2023/07/09 01:45:51;;;;;;;21.05;4.82;;;;;;;;;;4972816;28;20047;-69
2023/07/09 01:48:20;;;;;;;16.08;4.90;;;;;;;;;;4973556;28;20110;-69
2023/07/09 01:50:46;;;;;;;19.00;4.05;;;;;;;;;;4974450;28;20150;-68
2023/07/09 01:53:13;;;;;;;13.70;3.72;;;;;;;;;;4973496;28;20031;-68
2023/07/09 01:55:38;;;;;;;23.50;4.68;;;;;;;;;;4976041;28;20035;-68
2023/07/09 01:58:07;;;;;;;18.65;4.28;;;;;;;;;;4977540;28;20042;-69
2023/07/09 02:00:34;;;;;;;15.43;4.10;;;;;;;;;;4977203;28;20050;-69
2023/07/09 02:03:01;;;;;;;23.90;4.65;;;;;;;;;;4975532;28;20490;-68
2023/07/09 02:05:29;;;;;;;16.77;3.83;;;;;;;;;;5008185;28;20451;-69
2023/07/09 02:07:54;;;;;;;11.73;3.90;;;;;;;;;;4976373;28;20027;-68
2023/07/09 02:10:20;;;;;;;17.05;4.10;;;;;;;;;;4977375;28;20039;-68
2023/07/09 02:12:45;;;;;;;11.20;3.90;;;;;;;;;;4975594;28;20077;-69
2023/07/09 02:15:11;;;;;;;17.48;3.78;;;;;;;;;;4976888;28;20038;-69
2023/07/09 02:17:37;;;;;;;19.38;3.88;;;;;;;;;;4977250;28;20042;-68
2023/07/09 02:20:04;;;;;;;17.95;3.97;;;;;;;;;;4976989;28;20088;-68
2023/07/09 02:22:30;;;;;;;18.35;4.15;;;;;;;;;;4977170;28;20062;-68
2023/07/09 02:24:55;;;;;;;15.50;3.55;;;;;;;;;;4976769;28;20069;-68
2023/07/09 02:27:21;;;;;;;9.77;3.35;;;;;;;;;;4976741;28;20031;-69
2023/07/09 02:29:47;;;;;;;16.58;3.70;;;;;;;;;;4976347;28;20050;-69
2023/07/09 02:32:21;;;;;;;13.80;4.85;;;;;;;;;;4976607;28;20038;-69
2023/07/09 02:34:52;;;;;;;;;;;;;;;;;;4977153;28;20062;-68
2023/07/09 02:37:19;;;;;;;17.10;4.03;;;;;;;;;;4976952;28;19940;-69
2023/07/09 02:39:44;;;;;;;21.55;4.60;;;;;;;;;;4975009;28;20043;-68
2023/07/09 02:42:11;;;;;;;23.90;4.32;;;;;;;;;;4976696;28;20031;-68
2023/07/09 02:44:37;;;;;;;17.58;4.35;;;;;;;;;;4976095;28;20499;-69
2023/07/09 02:47:02;;;;;;;15.15;4.97;;;;;;;;;;4976663;28;20049;-68
2023/07/09 02:49:27;;;;;;;15.25;4.20;;;;;;;;;;4976137;28;20041;-69
2023/07/09 02:51:53;;;;;;;18.90;4.63;;;;;;;;;;4976718;28;20400;-69
2023/07/09 02:54:18;;;;;;;10.52;3.97;;;;;;;;;;4976779;28;20387;-69
2023/07/09 02:56:43;;;;;;;18.27;4.30;;;;;;;;;;4975832;28;20038;-68
2023/07/09 02:59:09;;;;;;;21.55;4.97;;;;;;;;;;4975520;28;20034;-69
2023/07/09 03:01:35;;;;;;;11.45;4.50;;;;;;;;;;4976181;28;20051;-68
2023/07/09 03:04:01;;;;;;;13.13;3.78;;;;;;;;;;4975953;28;20395;-69
2023/07/09 03:06:27;;;;;;;23.83;4.50;;;;;;;;;;4974772;28;20462;-68
2023/07/09 03:08:53;;;;;;;15.20;4.28;;;;;;;;;;4974949;28;20078;-69
2023/07/09 03:11:19;;;;;;;17.75;4.13;;;;;;;;;;4975975;28;20035;-69
2023/07/09 03:13:44;;;;;;;19.10;4.20;;;;;;;;;;4975982;28;20062;-68
2023/07/09 03:16:10;;;;;;;19.73;4.03;;;;;;;;;;4976172;28;20034;-68
2023/07/09 03:18:35;;;;;;;14.15;4.35;;;;;;;;;;4975759;28;20461;-68
2023/07/09 03:21:01;;;;;;;18.88;4.75;;;;;;;;;;4976168;28;20064;-68
2023/07/09 03:23:27;;;;;;;14.70;4.68;;;;;;;;;;4975620;28;20043;-69
2023/07/09 03:25:52;;;;;;;16.52;4.70;;;;;;;;;;4975856;28;20038;-69
2023/07/09 03:28:17;;;;;;;19.98;4.72;;;;;;;;;;4975662;28;20038;-69
2023/07/09 03:30:44;;;;;;;17.23;4.78;;;;;;;;;;5006743;28;20112;-68
2023/07/09 03:33:10;;;;;;;15.52;4.35;;;;;;;;;;4975544;28;20046;-69
2023/07/09 03:35:36;;;;;;;13.55;3.88;;;;;;;;;;4975751;28;20046;-69
2023/07/09 03:38:01;;;;;;;14.98;4.28;;;;;;;;;;4974043;28;20514;-69
2023/07/09 03:40:27;;;;;;;19.02;4.30;;;;;;;;;;4974499;28;20038;-69
2023/07/09 03:42:52;;;;;;;10.35;4.32;;;;;;;;;;4975477;28;20026;-69
2023/07/09 03:45:17;;;;;;;20.70;4.80;;;;;;;;;;4972887;28;20495;-68
2023/07/09 03:47:43;;;;;;;14.45;4.30;;;;;;;;;;4975451;28;20440;-68
2023/07/09 03:50:09;;;;;;;18.52;4.13;;;;;;;;;;4974225;28;20042;-68
2023/07/09 03:52:35;;;;;;;10.57;4.00;;;;;;;;;;4974187;28;20043;-68
2023/07/09 03:55:03;;;;;;;12.15;3.88;;;;;;;;;;4975140;28;20113;-69
2023/07/09 03:57:29;;;;;;;14.43;4.85;;;;;;;;;;4975552;28;20093;-68
2023/07/09 03:59:54;;;;;;;13.35;4.25;;;;;;;;;;4973052;28;20054;-68
2023/07/09 04:02:20;;;;;;;13.43;4.28;;;;;;;;;;4975095;28;20030;-69
2023/07/09 04:04:45;;;;;;;24.25;4.30;;;;;;;;;;4974755;28;20117;-68
2023/07/09 04:07:10;;;;;;;16.15;4.47;;;;;;;;;;4975344;28;20110;-68
2023/07/09 04:09:36;;;;;;;18.60;4.13;;;;;;;;;;4974779;28;20043;-68
2023/07/09 04:12:02;;;;;;;16.30;4.55;;;;;;;;;;4974206;28;20030;-68
2023/07/09 04:14:27;;;;;;;12.98;3.90;;;;;;;;;;4974625;28;20135;-69
2023/07/09 04:16:53;;;;;;;18.63;4.05;;;;;;;;;;4974857;28;20187;-69
2023/07/09 04:19:18;;;;;;;15.85;4.55;;;;;;;;;;4974678;28;20438;-68
2023/07/09 04:21:43;;;;;;;11.38;3.78;;;;;;;;;;4974831;28;20035;-68
2023/07/09 04:24:09;;;;;;;13.07;4.20;;;;;;;;;;4973416;28;20545;-69
2023/07/09 04:26:35;;;;;;;13.10;4.03;;;;;;;;;;4974649;28;20471;-69
2023/07/09 04:29:00;;;;;;;16.00;4.20;;;;;;;;;;4974385;28;20488;-68
2023/07/09 04:31:25;;;;;;;14.68;3.75;;;;;;;;;;4974288;28;20050;-68
2023/07/09 04:33:52;;;;;;;12.65;4.00;;;;;;;;;;4974235;28;20138;-69
2023/07/09 04:36:18;;;;;;;12.73;4.38;;;;;;;;;;4969252;28;20034;-69
2023/07/09 04:38:43;;;;;;;13.38;3.88;;;;;;;;;;4974130;28;20045;-68
2023/07/09 04:41:08;;;;;;;13.00;4.20;;;;;;;;;;4974634;28;20030;-68
2023/07/09 04:43:34;;;;;;;15.00;3.80;;;;;;;;;;4974249;28;20062;-68
2023/07/09 04:45:59;;;;;;;12.35;4.28;;;;;;;;;;4974264;28;20031;-69
2023/07/09 04:48:24;;;;;;;13.35;3.97;;;;;;;;;;4974335;28;20043;-68
2023/07/09 04:50:50;;;;;;;11.00;3.83;;;;;;;;;;4974358;28;20121;-69
2023/07/09 04:53:16;;;;;;;13.35;3.88;;;;;;;;;;4974168;28;20475;-70
2023/07/09 04:55:41;;;;;;;21.65;4.35;;;;;;;;;;4974632;28;20042;-69
2023/07/09 04:58:07;;;;;;;14.63;4.28;;;;;;;;;;4974201;28;20473;-69
2023/07/09 05:00:32;;;;;;;12.32;3.65;;;;;;;;;;4973296;28;20046;-68
2023/07/09 05:02:58;;;;;;;13.73;3.58;;;;;;;;;;4973747;28;20034;-68
2023/07/09 05:05:23;;;;;;;8.88;3.40;;;;;;;;;;4973923;28;20049;-68
2023/07/09 05:07:48;;;;;;;16.13;4.22;;;;;;;;;;4974131;28;20117;-68
2023/07/09 05:10:14;;;;;;;13.05;4.00;;;;;;;;;;4974065;28;20041;-68
2023/07/09 05:12:53;;;;;;;10.02;3.40;;;;;;;;;;4974156;28;20105;-68
2023/07/09 05:15:19;;;;;;;15.75;3.70;;;;;;;;;;4974163;28;20041;-68
2023/07/09 05:17:45;;;;;;;12.80;4.32;;;;;;;;;;4973789;28;20043;-68
2023/07/09 05:20:11;;;;;;;11.02;3.75;;;;;;;;;;4974233;28;20045;-69
2023/07/09 05:22:36;;;;;;;18.10;3.92;;;;;;;;;;4972939;28;20043;-68
2023/07/09 05:25:02;;;;;;;14.02;4.00;;;;;;;;;;4973847;28;20483;-68
2023/07/09 05:27:27;;;;;;;10.50;3.80;;;;;;;;;;4974087;28;20391;-69
2023/07/09 05:29:52;;;;;;;10.48;3.67;;;;;;;;;;4977001;28;20039;-68
2023/07/09 05:32:18;;;;;;;9.23;3.65;;;;;;;;;;4977296;28;20038;-69
2023/07/09 05:34:43;;;;;;;10.20;3.15;;;;;;;;;;4977579;28;20034;-69
2023/07/09 05:37:08;;;;;;;13.48;3.72;;;;;;;;;;4978000;28;20031;-68
2023/07/09 05:39:34;;;;;;;11.35;3.67;;;;;;;;;;4977743;28;20062;-68
2023/07/09 05:41:59;;;;;;;13.90;3.60;;;;;;;;;;4977721;28;20035;-69
2023/07/09 05:44:25;;;;;;;10.50;3.20;;;;;;;;;;4977533;28;20042;-68
2023/07/09 05:46:50;;;;;;;14.10;3.47;;;;;;;;;;4977444;28;20054;-69
2023/07/09 05:49:15;;;;;;;10.57;3.50;;;;;;;;;;4977562;28;20035;-68
2023/07/09 05:51:42;;;;;;;14.73;3.55;;;;;;;;;;4977793;28;20041;-69
2023/07/09 05:54:07;;;;;;;12.15;3.35;;;;;;;;;;4977610;28;20043;-69
2023/07/09 05:56:32;;;;;;;13.98;3.95;;;;;;;;;;4974715;28;20390;-68
2023/07/09 05:58:58;;;;;;;13.10;3.22;;;;;;;;;;4976940;28;20039;-68
2023/07/09 06:01:24;;;;;;;11.02;3.15;;;;;;;;;;4976741;28;20046;-68
2023/07/09 06:03:49;;;;;;;11.20;3.17;;;;;;;;;;4977282;28;20042;-68
2023/07/09 06:06:15;;;;;;;12.25;2.90;;;;;;;;;;4977510;28;20121;-69
2023/07/09 06:08:40;;;;;;;9.93;2.90;;;;;;;;;;4977242;28;20500;-69
2023/07/09 06:11:07;;;;;;;13.05;3.28;;;;;;;;;;4977495;28;20125;-69
2023/07/09 06:13:32;;;;;;;12.23;3.38;;;;;;;;;;4976509;28;20407;-69
2023/07/09 06:15:59;;;;;;;13.90;3.38;;;;;;;;;;4977024;28;20039;-68
2023/07/09 06:18:28;;;;;;;12.73;3.20;;;;;;;;;;4959399;28;20395;-69
2023/07/09 06:20:55;;;;;;;8.77;2.95;;;;;;;;;;4977210;28;20077;-68
2023/07/09 06:23:20;;;;;;;11.63;2.75;;;;;;;;;;4976917;28;20050;-69
2023/07/09 06:25:47;;;;;;;11.35;2.65;;;;;;;;;;4976567;28;20039;-69
2023/07/09 06:28:17;;;;;;;12.25;2.95;;;;;;;;;;4977301;28;20360;-69
2023/07/09 06:30:43;;;;;;;11.48;2.45;;;;;;;;;;4977012;28;20031;-69
2023/07/09 06:33:09;;;;;;;5.40;2.60;;;;;;;;;;4976277;28;20428;-68
2023/07/09 06:35:34;;;;;;;9.13;2.75;;;;;;;;;;4975604;28;20188;-69
2023/07/09 06:38:00;;;;;;;11.05;2.97;;;;;;;;;;4976703;28;20151;-69
2023/07/09 06:40:25;;;;;;;8.40;2.80;;;;;;;;;;4976126;28;20105;-69
2023/07/09 06:42:51;;;;;;;6.38;2.30;;;;;;;;;;4976477;28;20069;-69
2023/07/09 06:45:16;;;;;;;9.00;2.65;;;;;;;;;;4976182;28;20090;-69
2023/07/09 06:47:42;;;;;;;11.75;3.03;;;;;;;;;;4974715;28;20031;-69
2023/07/09 06:50:07;;;;;;;10.65;2.63;;;;;;;;;;4976869;28;20039;-69
2023/07/09 06:52:33;;;;;;;10.48;2.65;;;;;;;;;;4975295;28;20034;-69
2023/07/09 06:54:58;;;;;;;5.82;2.33;;;;;;;;;;4976963;28;20089;-69
2023/07/09 06:57:23;;;;;;;8.32;2.17;;;;;;;;;;4976349;28;20035;-69
2023/07/09 06:59:48;;;;;;;7.15;2.47;;;;;;;;;;4975150;28;20443;-69
2023/07/09 07:02:14;;;;;;;9.18;2.53;;;;;;;;;;4976202;28;20425;-69
2023/07/09 07:04:40;;;;;;;11.82;2.50;;;;;;;;;;4976454;28;20030;-69
2023/07/09 07:07:05;;;;;;;9.13;2.33;;;;;;;;;;4976330;28;20081;-69
2023/07/09 07:09:31;;;;;;;11.73;2.17;;;;;;;;;;4976311;28;20031;-69
2023/07/09 07:11:56;;;;;;;13.10;2.17;;;;;;;;;;4976416;28;20034;-69
2023/07/09 07:14:21;;;;;;;10.85;2.15;;;;;;;;;;4976210;28;20169;-69
2023/07/09 07:16:47;;;;;;;6.25;2.97;;;;;;;;;;4976131;28;20058;-69
2023/07/09 07:19:12;;;;;;;5.28;1.80;;;;;;;;;;4976270;28;20132;-69
2023/07/09 07:21:37;;;;;;;5.50;1.85;;;;;;;;;;4975724;28;20038;-69
2023/07/09 07:24:03;;;;;;;5.55;1.92;;;;;;;;;;4976050;28;20041;-69
2023/07/09 07:26:29;;;;;;;12.20;2.78;;;;;;;;;;4975389;28;20042;-69
2023/07/09 07:28:54;;;;;;;7.85;2.05;;;;;;;;;;4975802;28;20049;-69
2023/07/09 07:31:19;;;;;;;7.70;1.77;;;;;;;;;;4975866;28;20027;-68
2023/07/09 07:33:45;;;;;;;6.72;1.88;;;;;;;;;;4976191;28;20049;-69
2023/07/09 07:36:11;;;;;;;7.22;1.95;;;;;;;;;;4975772;28;20042;-69
2023/07/09 07:38:36;;;;;;;7.57;1.85;;;;;;;;;;4973684;28;20035;-68
2023/07/09 07:41:02;;;;;;;14.90;2.45;;;;;;;;;;4975634;28;20053;-69
2023/07/09 07:43:27;;;;;;;7.22;1.70;;;;;;;;;;4974242;28;20479;-69
2023/07/09 07:45:53;;;;;;;10.48;2.00;;;;;;;;;;4974840;28;20207;-69
2023/07/09 07:48:18;;;;;;;10.85;2.10;;;;;;;;;;4973865;28;20031;-69
2023/07/09 07:50:45;;;;;;;7.28;2.10;;;;;;;;;;4974213;28;20466;-67
2023/07/09 07:53:11;;;;;;;13.82;2.50;;;;;;;;;;4967459;28;20049;-69
2023/07/09 07:55:37;;;;;;;7.50;2.10;;;;;;;;;;4973330;28;20451;-70
2023/07/09 07:58:03;;;;;;;8.35;1.70;;;;;;;;;;4975467;28;20039;-69
2023/07/09 08:00:29;;;;;;;8.30;1.88;;;;;;;;;;4975170;28;20061;-70
2023/07/09 08:02:55;;;;;;;8.10;2.20;;;;;;;;;;4974072;28;20038;-70
2023/07/09 08:05:20;;;;;;;7.65;2.50;;;;;;;;;;4973318;28;20125;-69
2023/07/09 08:07:46;;;;;;;9.15;2.20;;;;;;;;;;4984121;28;20392;-69
2023/07/09 08:10:12;;;;;;;8.43;2.10;;;;;;;;;;4973950;28;20117;-69
2023/07/09 08:12:38;;;;;;;7.70;2.40;;;;;;;;;;4975029;28;20063;-69
2023/07/09 08:15:04;;;;;;;14.23;2.85;;;;;;;;;;4974641;28;20103;-69
2023/07/09 08:17:29;;;;;;;13.13;2.72;;;;;;;;;;4974849;28;20038;-70
2023/07/09 08:19:55;;;;;;;6.82;2.28;;;;;;;;;;4974988;28;20035;-69
2023/07/09 08:22:21;;;;;;;11.60;2.97;;;;;;;;;;4973581;28;20038;-68
2023/07/09 08:24:47;;;;;;;9.23;3.03;;;;;;;;;;4974367;28;20077;-67
2023/07/09 08:27:13;;;;;;;13.27;2.60;;;;;;;;;;4973932;28;20049;-68
2023/07/09 08:29:41;;;;;;;10.57;2.85;;;;;;;;;;4974169;28;20035;-68
2023/07/09 08:32:07;;;;;;;16.70;2.80;;;;;;;;;;4974417;28;20061;-68
2023/07/09 08:34:33;;;;;;;11.60;2.70;;;;;;;;;;4973971;28;20042;-68
2023/07/09 08:36:58;;;;;;;9.45;2.35;;;;;;;;;;4974266;28;20042;-68
2023/07/09 08:39:24;;;;;;;13.30;2.65;;;;;;;;;;4974777;28;20057;-68
2023/07/09 08:42:03;;;;;;;11.23;2.20;;;;;;;;;;4974615;28;20049;-68
2023/07/09 08:44:41;;;;;;;12.68;2.70;;;;;;;;;;4974160;28;20074;-68
2023/07/09 08:47:22;;;;;;;7.43;2.60;;;;;;;;;;4973737;28;20047;-68
2023/07/09 08:49:54;;;;;;;7.80;2.10;;;;;;;;;;4973374;28;20598;-68
2023/07/09 08:52:25;;;;;;;8.85;1.85;;;;;;;;;;4973140;28;20070;-68
2023/07/09 08:54:50;;;;;;;9.17;2.73;;;;;;;;;;4964632;28;20030;-68
2023/07/09 08:57:23;;;;;;;8.07;2.10;;;;;;;;;;4972080;28;20430;-68
2023/07/09 08:59:50;;;;;;;6.65;1.83;;;;;;;;;;4972053;28;20440;-68
2023/07/09 09:02:30;;;;;;;8.48;1.95;;;;;;;;;;4973041;28;20039;-69
2023/07/09 09:04:56;;;;;;;10.20;2.05;;;;;;;;;;4970750;28;20058;-70
2023/07/09 09:07:37;;;;;;;8.75;2.10;;;;;;;;;;4973126;28;20030;-69
2023/07/09 09:10:04;;;;;;;9.77;2.17;;;;;;;;;;4956396;28;20507;-69
2023/07/09 09:12:35;;;;;;;7.28;1.92;;;;;;;;;;4972590;28;20043;-69
2023/07/09 09:15:05;;;;;;;10.73;2.07;;;;;;;;;;4972138;28;20039;-69
2023/07/09 09:17:33;;;;;;;13.20;1.77;;;;;;;;;;4972557;28;20051;-69
2023/07/09 09:20:03;;;;;;;11.48;2.20;;;;;;;;;;4970369;28;20042;-67
2023/07/09 09:23:09;;;;;;;6.40;1.83;;;;;;;;;;4964406;28;20045;-66
2023/07/09 09:25:37;;;;;;;9.30;1.70;;;;;;;;;;4994374;28;20059;-67
2023/07/09 09:28:03;;;;;;;6.63;1.65;;;;;;;;;;5005148;28;20562;-67
2023/07/09 09:30:29;;;;;;;9.00;1.77;;;;;;;;;;4973393;28;20066;-67
2023/07/09 09:33:06;;;;;;;8.90;1.83;;;;;;;;;;4974141;28;20047;-69
2023/07/09 09:35:37;;;;;;;9.02;1.85;;;;;;;;;;4973248;28;20046;-69
2023/07/09 09:38:12;;;;;;;9.05;1.90;;;;;;;;;;4972548;28;20035;-68
2023/07/09 09:40:37;;;;;;;8.10;1.98;;;;;;;;;;4973261;28;20043;-68
2023/07/09 09:43:04;;;;;;;10.80;1.75;;;;;;;;;;4965225;28;20041;-69
2023/07/09 09:45:35;;;;;;;11.75;1.95;;;;;;;;;;4972880;28;20351;-69
2023/07/09 09:48:24;;;;;;;10.40;1.95;;;;;;;;;;4973841;28;20442;-69
2023/07/09 09:50:51;;;;;;;9.18;1.70;;;;;;;;;;4972348;28;20057;-69
2023/07/09 09:53:22;;;;;;;9.55;2.05;;;;;;;;;;4972955;28;20050;-69
2023/07/09 09:55:49;;;;;;;8.23;1.70;;;;;;;;;;4967959;28;20118;-69
2023/07/09 09:58:16;;;;;;;9.75;2.00;;;;;;;;;;4972370;28;20114;-69
2023/07/09 10:00:47;;;;;;;6.32;1.58;;;;;;;;;;4972094;28;20050;-69
2023/07/09 10:03:13;;;;;;;8.25;1.65;;;;;;;;;;4967776;28;20089;-68
2023/07/09 10:05:44;;;;;;;12.15;2.03;;;;;;;;;;4972767;28;20478;-68
2023/07/09 10:08:15;;;;;;;8.70;1.70;;;;;;;;;;4970409;28;20475;-69
2023/07/09 10:10:44;;;;;;;7.80;1.83;;;;;;;;;;4972580;28;20030;-68
2023/07/09 10:13:22;;;;;;;7.40;1.58;;;;;;;;;;4972297;28;20042;-68
2023/07/09 10:16:10;;;;;;;7.05;1.92;;;;;;;;;;4974096;28;20066;-68
2023/07/09 10:19:00;;;;;;;6.72;1.67;;;;;;;;;;5001172;28;20487;-69
2023/07/09 10:21:58;;;;;;;8.13;1.77;;;;;;;;;;4977409;28;20050;-69
2023/07/09 10:24:29;;;;;;;7.95;1.65;;;;;;;;;;4967679;28;20046;-69
2023/07/09 10:27:06;;;;;;;5.43;1.40;;;;;;;;;;4977332;28;20046;-69
2023/07/09 10:29:47;;;;;;;12.10;2.17;;;;;;;;;;4975308;28;20046;-69
2023/07/09 10:32:24;;;;;;;5.45;1.40;;;;;;;;;;4977032;28;20049;-69
2023/07/09 10:34:59;;;;;;;10.38;1.90;;;;;;;;;;4977002;28;20050;-67
2023/07/09 10:37:37;;;;;;;7.07;1.98;;;;;;;;;;4972562;28;20054;-69
2023/07/09 10:40:05;;;;;;;4.50;1.63;;;;;;;;;;4977065;28;20035;-68
2023/07/09 10:42:37;;;;;;;6.97;1.83;;;;;;;;;;4976589;28;20053;-69
2023/07/09 10:45:10;;;;;;;16.58;2.45;;;;;;;;;;4973109;28;20061;-68
2023/07/09 10:47:43;;;;;;;10.65;1.73;;;;;;;;;;4976246;28;20047;-68
2023/07/09 10:50:29;;;;;;;7.57;1.75;;;;;;;;;;4975260;28;20129;-68
2023/07/09 10:52:57;;;;;;;6.78;1.70;;;;;;;;;;4972199;28;20035;-69
2023/07/09 10:55:44;;;;;;;11.20;2.47;;;;;;;;;;4974204;28;20030;-69
2023/07/09 10:58:30;;;;;;;10.93;3.95;;;;;;;;;;4974435;28;20045;-69
2023/07/09 11:00:57;;;;;;;10.15;1.80;;;;;;;;;;4970164;28;20062;-69
2023/07/09 11:03:28;;;;;;;9.18;1.60;;;;;;;;;;4974410;28;20042;-68
2023/07/09 11:05:53;;;;;;;12.73;2.30;;;;;;;;;;4975892;28;20038;-69
2023/07/09 11:08:23;;;;;;;8.57;1.77;;;;;;;;;;4974372;28;20047;-69
2023/07/09 11:11:00;;;;;;;10.38;1.73;;;;;;;;;;4975183;28;20050;-69
2023/07/09 11:13:36;;;;;;;9.43;1.95;;;;;;;;;;4974823;28;20046;-69
2023/07/09 11:16:02;;;;;;;7.95;1.75;;;;;;;;;;4965534;28;20053;-69
2023/07/09 11:18:32;;;;;;;8.43;1.95;;;;;;;;;;4973507;28;20046;-69
2023/07/09 11:21:14;;;;;;;6.88;1.58;;;;;;;;;;4975729;28;20043;-69
2023/07/09 11:23:49;;;;;;;7.95;1.90;;;;;;;;;;4972194;28;20030;-69
2023/07/09 11:26:23;;;;;;;5.20;1.73;;;;;;;;;;4973165;28;20473;-69
2023/07/09 11:28:52;;;;;;;8.50;1.80;;;;;;;;;;4975671;28;21388;-69
2023/07/09 11:31:21;;;;;;;7.38;1.48;;;;;;;;;;4975280;28;20043;-69
2023/07/09 11:33:48;;;;;;;6.78;1.60;;;;;;;;;;4975621;28;20086;-69
2023/07/09 11:36:25;;;;;;;7.55;1.70;;;;;;;;;;4975512;28;20126;-69
2023/07/09 11:38:51;;;;;;;10.13;1.75;;;;;;;;;;4974758;28;20038;-69
2023/07/09 11:41:32;;;;;;;9.02;1.70;;;;;;;;;;4975350;28;20364;-69
2023/07/09 11:44:16;;;;;;;7.85;1.58;;;;;;;;;;4975694;28;20038;-69
2023/07/09 11:47:13;;;;;;;9.57;1.70;;;;;;;;;;4975893;28;20169;-69
2023/07/09 11:49:59;;;;;;;8.40;1.80;;;;;;;;;;4972026;28;20054;-69
2023/07/09 11:52:42;;;;;;;8.60;1.65;;;;;;;;;;4974485;28;20053;-69
2023/07/09 11:55:37;;;;;;;10.88;1.60;;;;;;;;;;4974418;28;20054;-69
2023/07/09 11:58:03;;;;;;;8.98;1.65;;;;;;;;;;4975165;28;20046;-69
2023/07/09 12:00:40;;;;;;;8.48;1.80;;;;;;;;;;4974867;28;20051;-69
2023/07/09 12:03:09;;;;;;;8.98;1.30;;;;;;;;;;4974163;28;20034;-69
2023/07/09 12:05:35;;;;;;;7.47;1.70;;;;;;;;;;4974061;28;20122;-69
2023/07/09 12:08:01;;;;;;;7.00;1.70;;;;;;;;;;4973953;28;20089;-69
2023/07/09 12:10:28;;;;;;;7.82;1.80;;;;;;;;;;4973911;28;20042;-69
2023/07/09 12:12:55;;;;;;;8.18;1.52;;;;;;;;;;4974519;28;20122;-69
2023/07/09 12:15:29;;;;;;;8.85;2.33;;;;;;;;;;4970484;28;20038;-69
2023/07/09 12:17:59;;;;;;;9.65;1.65;;;;;;;;;;4974268;28;20065;-69
2023/07/09 12:20:25;;;;;;;10.00;2.50;;;;;;;;;;4967094;28;20387;-69
2023/07/09 12:22:51;;;;;;;6.93;1.73;;;;;;;;;;4971446;28;20169;-69
2023/07/09 12:25:27;;;;;;;10.88;1.60;;;;;;;;;;4975329;28;20181;-69
2023/07/09 12:27:53;;;;;;;10.30;2.53;;;;;;;;;;4973399;28;20039;-69
2023/07/09 12:30:19;;;;;;;11.52;2.55;;;;;;;;;;4974962;28;20038;-69
2023/07/09 12:32:46;;;;;;;8.27;1.70;;;;;;;;;;4973452;28;20120;-69
2023/07/09 12:35:14;;;;;;;8.82;1.85;;;;;;;;;;4973768;28;20034;-69
2023/07/09 12:37:41;;;;;;;9.95;1.67;;;;;;;;;;4973370;28;20058;-69
2023/07/09 12:40:22;;;;;;;9.93;1.77;;;;;;;;;;4973274;28;20431;-69
2023/07/09 12:42:48;;;;;;;12.48;2.00;;;;;;;;;;4970356;28;20463;-69
2023/07/09 12:45:18;;;;;;;8.77;1.70;;;;;;;;;;4973356;28;20093;-69
2023/07/09 12:47:45;;;;;;;7.80;1.92;;;;;;;;;;4956960;28;20391;-69
2023/07/09 12:50:21;;;;;;;9.55;1.90;;;;;;;;;;4971651;28;20395;-69
2023/07/09 12:52:48;;;;;;;7.10;1.33;;;;;;;;;;4974576;28;20047;-69
2023/07/09 12:55:25;;;;;;;12.02;1.85;;;;;;;;;;4974586;28;20043;-69
2023/07/09 12:57:51;;;;;;;5.60;1.60;;;;;;;;;;4974485;28;20057;-69
2023/07/09 13:00:17;;;;;;;8.60;1.65;;;;;;;;;;4973208;28;20129;-69
2023/07/09 13:02:43;;;;;;;4.90;1.60;;;;;;;;;;4973009;28;20203;-69
2023/07/09 13:05:23;;;;;;;8.35;1.80;;;;;;;;;;4976141;28;20110;-69
2023/07/09 13:08:01;;;;;;;6.78;1.67;;;;;;;;;;4976237;28;20049;-69
2023/07/09 13:10:31;;;;;;;9.43;1.58;;;;;;;;;;4975887;28;20454;-69
2023/07/09 13:13:01;;;;;;;6.35;1.38;;;;;;;;;;4976684;28;20039;-69
2023/07/09 13:15:30;;;;;;;8.88;1.50;;;;;;;;;;4973430;28;20038;-69
2023/07/09 13:18:02;;;;;;;5.78;1.42;;;;;;;;;;4974034;28;20491;-69
2023/07/09 13:20:28;;;;;;;5.65;1.55;;;;;;;;;;4966221;28;20093;-69
2023/07/09 13:22:55;;;;;;;5.00;1.50;;;;;;;;;;4974220;28;20062;-69
2023/07/09 13:25:20;;;;;;;6.90;1.40;;;;;;;;;;4972617;28;20031;-68
2023/07/09 13:27:45;;;;;;;5.78;1.60;;;;;;;;;;4996482;28;20039;-68
2023/07/09 13:30:11;;;;;;;4.65;1.45;;;;;;;;;;4973605;28;20121;-69
2023/07/09 13:32:37;;;;;;;7.43;1.42;;;;;;;;;;4973765;28;20393;-69
2023/07/09 13:35:03;;;;;;;7.22;1.40;;;;;;;;;;4974145;28;20042;-69
2023/07/09 13:37:29;;;;;;;8.25;1.60;;;;;;;;;;4973845;28;20044;-68
2023/07/09 13:39:54;;;;;;;7.25;1.30;;;;;;;;;;4972874;28;20384;-69
2023/07/09 13:42:20;;;;;;;7.53;1.30;;;;;;;;;;4974219;28;20081;-69
2023/07/09 13:44:46;;;;;;;10.13;1.33;;;;;;;;;;4973065;28;20085;-69
2023/07/09 13:47:17;;;;;;;5.80;1.33;;;;;;;;;;4974011;28;20030;-69
2023/07/09 13:49:43;;;;;;;8.13;1.95;;;;;;;;;;4967929;28;20471;-68
2023/07/09 13:52:18;;;;;;;9.63;1.88;;;;;;;;;;4972045;28;20031;-69
2023/07/09 13:54:47;;;;;;;5.10;1.33;;;;;;;;;;4961879;28;20129;-69
2023/07/09 13:57:15;;;;;;;5.53;1.27;;;;;;;;;;4968929;28;20101;-69
2023/07/09 13:59:41;;;;;;;7.38;1.38;;;;;;;;;;4972997;28;20046;-69
2023/07/09 14:02:32;;;;;;;8.45;1.42;;;;;;;;;;4969062;28;20082;-69
2023/07/09 14:04:59;;;;;;;5.50;1.27;;;;;;;;;;4970425;28;20055;-69
2023/07/09 14:07:33;;;;;;;7.63;1.48;;;;;;;;;;4970939;28;20530;-69
2023/07/09 14:09:59;;;;;;;7.20;1.70;;;;;;;;;;4973137;28;20129;-69
2023/07/09 14:12:26;;;;;;;3.70;1.10;;;;;;;;;;4972597;28;20046;-69
2023/07/09 14:14:52;;;;;;;9.27;1.60;;;;;;;;;;4971624;28;20043;-69
2023/07/09 14:17:17;;;;;;;6.57;1.75;;;;;;;;;;4972572;28;20375;-69
2023/07/09 14:19:43;;;;;;;9.05;1.33;;;;;;;;;;4971606;28;20039;-69
2023/07/09 14:22:22;;;;;;;7.97;1.23;;;;;;;;;;4968220;28;20042;-69
2023/07/09 14:24:48;;;;;;;5.38;1.30;;;;;;;;;;4969869;28;20399;-69
2023/07/09 14:27:13;;;;;;;5.15;1.08;;;;;;;;;;4970352;28;20047;-68
2023/07/09 14:29:38;;;;;;;6.28;1.45;;;;;;;;;;4971564;28;20030;-69
2023/07/09 14:32:05;;;;;;;6.93;1.30;;;;;;;;;;4970499;28;20039;-69
2023/07/09 14:34:33;;;;;;;7.85;1.40;;;;;;;;;;4971419;28;20137;-69
2023/07/09 14:36:59;;;;;;;4.63;1.45;;;;;;;;;;4970753;28;20043;-69
2023/07/09 14:39:27;;;;;;;6.00;1.20;;;;;;;;;;4971838;28;20074;-69
2023/07/09 14:41:52;;;;;;;3.75;1.17;;;;;;;;;;4972276;28;20038;-69
2023/07/09 14:44:27;;;;;;;5.88;1.70;;;;;;;;;;4971353;28;20467;-69